createdAt,value
2023-04-20T00:00:33.912Z,96536.59
2023-04-20T00:03:03.725Z,96551.25
2023-04-20T00:05:32.515Z,96540.66
2023-04-20T00:08:02.246Z,96495.97
2023-04-20T00:10:30.775Z,96518.78
2023-04-20T00:12:58.964Z,96392.16
2023-04-20T00:15:27.153Z,96480.63
2023-04-20T00:17:55.341Z,96534.72
2023-04-20T00:20:25.564Z,96453.09
2023-04-20T00:22:53.802Z,96532.59
2023-04-20T00:25:22.205Z,96521.47
2023-04-20T00:27:50.367Z,96481.56
2023-04-20T00:30:18.598Z,96508.28
2023-04-20T00:32:46.853Z,96473.41
2023-04-20T00:35:15.734Z,96471.84
2023-04-20T00:37:45.311Z,96501.63
2023-04-20T00:40:13.816Z,96439.16
2023-04-20T00:42:42.343Z,96469.72
2023-04-20T00:45:11.576Z,96532.09
2023-04-20T00:47:40.097Z,96468.78
2023-04-20T00:50:10.763Z,96533.22
2023-04-20T00:52:41.102Z,96470.63
2023-04-20T00:55:11.526Z,96530.13
2023-04-20T00:57:39.979Z,96509.59
2023-04-20T01:00:11.026Z,96431.91
2023-04-20T01:02:39.378Z,96479.72
2023-04-20T01:05:10.352Z,96472.50
2023-04-20T01:07:38.577Z,96430.72
2023-04-20T01:10:10.350Z,96447.47
2023-04-20T01:12:41.385Z,96444.75
2023-04-20T01:15:11.908Z,96453.47
2023-04-20T01:17:48.245Z,96433.66
2023-04-20T01:20:16.737Z,96464.56
2023-04-20T01:22:48.224Z,96447.81
2023-04-20T01:25:17.288Z,96445.09
2023-04-20T01:27:45.918Z,96456.56
2023-04-20T01:30:14.751Z,96448.91
2023-04-20T01:32:43.004Z,96499.72
2023-04-20T01:35:11.654Z,96470.78
2023-04-20T01:37:40.635Z,96455.56
2023-04-20T01:40:13.497Z,96448.25
2023-04-20T01:42:42.140Z,96408.22
2023-04-20T01:45:11.304Z,96402.22
2023-04-20T01:47:39.572Z,96426.28
2023-04-20T01:50:09.597Z,96419.22
2023-04-20T01:52:37.859Z,96406.47
2023-04-20T01:55:07.578Z,96454.13
2023-04-20T01:57:37.297Z,96431.66
2023-04-20T02:00:08.573Z,96395.91
2023-04-20T02:02:42.540Z,96434.25
2023-04-20T02:05:25.179Z,96439.22
2023-04-20T02:07:53.748Z,96345.06
2023-04-20T02:10:22.505Z,96396.19
2023-04-20T02:12:52.190Z,96408.53
2023-04-20T02:15:20.478Z,96378.69
2023-04-20T02:17:52.277Z,96443.84
2023-04-20T02:20:21.260Z,96415.22
2023-04-20T02:22:49.572Z,96404.66
2023-04-20T02:25:18.585Z,96264.19
2023-04-20T02:27:46.861Z,96404.97
2023-04-20T02:30:16.651Z,96404.19
2023-04-20T02:32:45.099Z,96371.66
2023-04-20T02:35:13.419Z,96430.66
2023-04-20T02:37:44.608Z,96393.38
2023-04-20T02:40:14.604Z,96412.28
2023-04-20T02:42:43.020Z,96363.53
2023-04-20T02:45:13.310Z,96403.59
2023-04-20T02:47:45.722Z,96360.81
2023-04-20T02:50:15.732Z,96353.53
2023-04-20T02:53:06.711Z,96368.25
2023-04-20T02:55:37.554Z,96392.91
2023-04-20T02:58:15.456Z,96396.97
2023-04-20T03:01:05.031Z,96355.09
2023-04-20T03:03:35.608Z,96343.31
2023-04-20T03:06:06.367Z,96345.47
2023-04-20T03:08:35.840Z,96330.03
2023-04-20T03:11:20.886Z,96374.78
2023-04-20T03:13:49.124Z,96294.03
2023-04-20T03:16:18.237Z,96423.13
2023-04-20T03:18:51.829Z,96337.31
2023-04-20T03:21:20.704Z,96328.22
2023-04-20T03:23:49.643Z,96321.72
2023-04-20T03:26:18.642Z,96370.38
2023-04-20T03:29:12.788Z,96370.22
2023-04-20T03:31:41.537Z,96291.34
2023-04-20T03:34:13.220Z,96335.28
2023-04-20T03:36:41.496Z,96342.50
2023-04-20T03:39:09.770Z,96366.31
2023-04-20T03:41:39.366Z,96348.22
2023-04-20T03:44:08.057Z,96351.97
2023-04-20T03:46:38.370Z,96323.72
2023-04-20T03:49:06.861Z,96368.28
2023-04-20T03:51:36.487Z,96403.91
2023-04-20T03:54:07.158Z,96316.53
2023-04-20T03:56:35.849Z,96327.56
2023-04-20T03:59:04.149Z,96325.44
2023-04-20T04:01:34.029Z,96319.53
2023-04-20T04:04:07.654Z,96273.38
2023-04-20T04:06:48.209Z,96400.50
2023-04-20T04:09:16.829Z,96315.81
2023-04-20T04:11:47.135Z,96317.25
2023-04-20T04:14:15.648Z,96282.69
2023-04-20T04:16:44.087Z,96307.81
2023-04-20T04:19:13.999Z,96343.78
2023-04-20T04:21:42.619Z,96376.00
2023-04-20T04:24:12.858Z,96319.00
2023-04-20T04:26:59.601Z,96376.94
2023-04-20T04:29:29.830Z,96315.34
2023-04-20T04:32:08.233Z,96294.81
2023-04-20T04:34:36.542Z,96339.44
2023-04-20T04:37:04.860Z,96310.03
2023-04-20T04:39:43.659Z,96302.38
2023-04-20T04:42:19.456Z,96265.66
2023-04-20T04:44:48.863Z,96334.94
2023-04-20T04:47:25.406Z,96359.94
2023-04-20T04:49:54.720Z,96320.66
2023-04-20T04:52:24.285Z,96270.03
2023-04-20T04:54:54.003Z,96346.03
2023-04-20T04:57:22.250Z,96322.41
2023-04-20T04:59:50.493Z,96359.22
2023-04-20T05:02:19.324Z,96284.84
2023-04-20T05:04:47.892Z,96295.38
2023-04-20T05:07:17.405Z,96331.16
2023-04-20T05:09:45.757Z,96348.59
2023-04-20T05:12:15.377Z,96285.06
2023-04-20T05:14:43.653Z,96307.25
2023-04-20T05:17:12.628Z,96326.22
2023-04-20T05:19:40.864Z,96331.03
2023-04-20T05:22:09.070Z,96294.63
2023-04-20T05:24:37.324Z,96283.41
2023-04-20T05:27:05.654Z,96317.38
2023-04-20T05:29:35.246Z,96302.91
2023-04-20T05:32:03.664Z,96290.47
2023-04-20T05:34:32.238Z,96343.41
2023-04-20T05:37:00.877Z,96321.59
2023-04-20T05:39:29.192Z,96283.75
2023-04-20T05:41:58.011Z,96292.06
2023-04-20T05:44:26.411Z,96276.97
2023-04-20T05:46:55.974Z,96338.69
2023-04-20T05:49:24.859Z,96303.41
2023-04-20T05:51:53.186Z,96317.38
2023-04-20T05:54:21.409Z,96337.88
2023-04-20T05:56:49.625Z,96331.19
2023-04-20T05:59:18.936Z,96309.06
2023-04-20T06:01:47.421Z,96315.53
2023-04-20T06:04:21.184Z,96363.75
2023-04-20T06:06:52.592Z,96317.97
2023-04-20T06:09:25.489Z,96293.84
2023-04-20T06:11:53.793Z,96304.03
2023-04-20T06:14:21.992Z,96325.88
2023-04-20T06:16:50.226Z,96294.03
2023-04-20T06:19:19.856Z,96317.50
2023-04-20T06:21:48.273Z,96309.69
2023-04-20T06:24:16.530Z,96281.78
2023-04-20T06:26:44.727Z,96283.84
2023-04-20T06:29:12.988Z,96319.13
2023-04-20T06:31:41.342Z,96336.31
2023-04-20T06:34:09.635Z,96313.75
2023-04-20T06:36:43.301Z,96342.19
2023-04-20T06:39:12.374Z,96280.03
2023-04-20T06:41:40.656Z,96679.00
2023-04-20T06:44:10.113Z,96313.47
2023-04-20T06:46:38.464Z,96308.22
2023-04-20T06:49:06.811Z,96285.53
2023-04-20T06:51:35.075Z,96307.81
2023-04-20T06:54:04.779Z,96262.13
2023-04-20T06:56:35.359Z,96258.53
2023-04-20T06:59:03.944Z,96272.22
2023-04-20T07:01:32.305Z,96275.09
2023-04-20T07:04:00.845Z,96304.91
2023-04-20T07:06:29.253Z,96318.31
2023-04-20T07:08:57.473Z,96295.34
2023-04-20T07:11:27.104Z,96244.06
2023-04-20T07:13:55.365Z,96300.31
2023-04-20T07:16:23.732Z,96333.34
2023-04-20T07:18:52.011Z,96291.44
2023-04-20T07:21:20.238Z,96307.75
2023-04-20T07:23:48.442Z,96325.09
2023-04-20T07:26:16.973Z,96329.94
2023-04-20T07:28:46.597Z,96261.47
2023-04-20T07:31:14.886Z,96291.03
2023-04-20T07:33:43.508Z,96311.38
2023-04-20T07:36:11.963Z,96302.56
2023-04-20T07:38:40.252Z,96314.06
2023-04-20T07:41:11.011Z,96320.00
2023-04-20T07:43:39.830Z,96202.72
2023-04-20T07:46:10.556Z,96309.09
2023-04-20T07:48:39.409Z,96300.63
2023-04-20T07:51:07.798Z,96288.91
2023-04-20T07:53:36.055Z,96348.81
2023-04-20T07:56:04.288Z,96336.09
2023-04-20T07:58:32.560Z,96314.34
2023-04-20T08:01:00.831Z,96323.63
2023-04-20T08:03:30.631Z,96314.84
2023-04-20T08:05:59.191Z,96309.56
2023-04-20T08:08:27.517Z,96310.63
2023-04-20T08:10:58.556Z,96296.84
2023-04-20T08:13:27.603Z,96272.31
2023-04-20T08:15:56.053Z,96352.63
2023-04-20T08:18:24.396Z,96352.31
2023-04-20T08:20:54.231Z,96327.53
2023-04-20T08:23:27.708Z,96355.50
2023-04-20T08:25:56.235Z,96262.44
2023-04-20T08:28:33.460Z,96293.97
2023-04-20T08:31:02.671Z,96338.09
2023-04-20T08:33:31.193Z,96388.56
2023-04-20T08:36:00.821Z,96333.56
2023-04-20T08:38:33.945Z,96317.84
2023-04-20T08:41:03.131Z,96315.53
2023-04-20T08:43:32.276Z,96474.84
2023-04-20T08:46:02.798Z,96136.81
2023-04-20T08:48:36.421Z,96347.38
2023-04-20T08:51:07.391Z,96285.19
2023-04-20T08:53:35.715Z,96355.59
2023-04-20T08:56:04.243Z,96303.59
2023-04-20T08:58:33.803Z,96282.97
2023-04-20T09:01:02.150Z,96282.66
2023-04-20T09:03:35.912Z,96316.13
2023-04-20T09:06:07.103Z,96296.44
2023-04-20T09:08:41.350Z,96299.56
2023-04-20T09:11:21.980Z,96270.00
2023-04-20T09:14:01.309Z,96309.03
2023-04-20T09:16:30.366Z,96267.63
2023-04-20T09:18:59.273Z,96302.97
2023-04-20T09:21:30.557Z,96309.94
2023-04-20T09:24:00.644Z,96252.81
2023-04-20T09:26:29.432Z,96310.34
2023-04-20T09:28:57.705Z,96270.53
2023-04-20T09:31:25.958Z,96282.00
2023-04-20T09:33:58.669Z,96267.06
2023-04-20T09:36:38.906Z,96288.94
2023-04-20T09:39:10.721Z,96300.97
2023-04-20T09:41:40.749Z,96272.63
2023-04-20T09:44:10.373Z,96283.88
2023-04-20T09:46:41.516Z,96171.28
2023-04-20T09:49:11.705Z,96256.63
2023-04-20T09:51:45.177Z,96279.59
2023-04-20T09:54:15.953Z,96218.38
2023-04-20T09:56:44.732Z,96223.94
2023-04-20T09:59:14.113Z,96235.06
2023-04-20T10:01:42.736Z,96240.84
2023-04-20T10:04:14.500Z,96220.28
2023-04-20T10:06:55.876Z,96228.16
2023-04-20T10:09:26.946Z,96285.63
2023-04-20T10:12:06.976Z,96243.56
2023-04-20T10:14:35.664Z,96232.38
2023-04-20T10:17:07.606Z,96256.75
2023-04-20T10:19:43.688Z,96206.16
2023-04-20T10:22:26.786Z,96235.06
2023-04-20T10:24:55.395Z,96204.56
2023-04-20T10:27:24.068Z,96236.88
2023-04-20T10:29:52.360Z,96211.34
2023-04-20T10:32:25.622Z,96154.69
2023-04-20T10:35:04.924Z,96161.41
2023-04-20T10:37:35.373Z,96139.13
2023-04-20T10:40:07.421Z,96213.00
2023-04-20T10:42:44.103Z,96195.66
2023-04-20T10:45:13.211Z,96171.00
2023-04-20T10:47:41.829Z,96174.56
2023-04-20T10:50:12.421Z,96205.22
2023-04-20T10:52:44.745Z,96136.09
2023-04-20T10:55:25.031Z,96171.16
2023-04-20T10:57:53.924Z,96181.69
2023-04-20T11:00:25.659Z,96167.88
2023-04-20T11:02:56.439Z,96184.91
2023-04-20T11:05:28.151Z,96162.72
2023-04-20T11:07:59.534Z,96237.53
2023-04-20T11:10:39.995Z,96187.66
2023-04-20T11:13:08.654Z,96019.13
2023-04-20T11:15:37.304Z,96160.34
2023-04-20T11:18:09.276Z,96169.63
2023-04-20T11:20:38.264Z,96143.84
2023-04-20T11:23:07.868Z,96168.88
2023-04-20T11:25:36.155Z,96153.09
2023-04-20T11:28:09.051Z,96129.34
2023-04-20T11:30:41.419Z,96097.69
2023-04-20T11:33:10.521Z,96170.03
2023-04-20T11:35:40.064Z,96180.59
2023-04-20T11:38:10.170Z,96127.13
2023-04-20T11:40:38.433Z,96146.13
2023-04-20T11:43:06.874Z,96123.31
2023-04-20T11:45:36.513Z,96126.63
2023-04-20T11:48:06.832Z,96172.44
2023-04-20T11:50:35.238Z,96098.44
2023-04-20T11:53:03.462Z,96153.91
2023-04-20T11:55:33.084Z,96116.81
2023-04-20T11:58:01.296Z,96162.44
2023-04-20T12:00:30.211Z,96147.97
2023-04-20T12:02:59.955Z,96139.78
2023-04-20T12:05:28.947Z,96178.84
2023-04-20T12:08:00.096Z,96150.16
2023-04-20T12:10:57.989Z,96124.78
2023-04-20T12:13:26.921Z,96150.53
2023-04-20T12:15:55.155Z,96153.69
2023-04-20T12:18:23.407Z,96165.84
2023-04-20T12:20:51.617Z,96139.25
2023-04-20T12:23:20.368Z,96174.53
2023-04-20T12:25:49.401Z,96098.59
2023-04-20T12:28:19.155Z,96168.16
2023-04-20T12:30:47.528Z,96161.44
2023-04-20T12:33:16.063Z,96180.97
2023-04-20T12:35:45.159Z,96025.97
2023-04-20T12:38:14.654Z,96161.91
2023-04-20T12:40:43.108Z,96173.09
2023-04-20T12:43:11.560Z,96133.22
2023-04-20T12:45:41.135Z,96179.31
2023-04-20T12:48:09.791Z,96177.00
2023-04-20T12:50:38.007Z,96199.94
2023-04-20T12:53:06.657Z,96145.16
2023-04-20T12:55:35.025Z,96181.91
2023-04-20T12:58:03.284Z,96181.25
2023-04-20T13:00:31.540Z,96201.91
2023-04-20T13:03:01.499Z,96174.00
2023-04-20T13:05:30.040Z,96173.72
2023-04-20T13:07:58.256Z,96142.56
2023-04-20T13:10:26.713Z,96164.53
2023-04-20T13:12:56.011Z,96159.59
2023-04-20T13:15:37.539Z,96097.28
2023-04-20T13:18:09.739Z,96184.69
2023-04-20T13:20:38.270Z,96224.44
2023-04-20T13:23:06.626Z,96151.41
2023-04-20T13:25:35.245Z,96139.31
2023-04-20T13:28:05.121Z,96061.88
2023-04-20T13:30:34.144Z,96141.94
2023-04-20T13:33:02.454Z,96143.56
2023-04-20T13:35:32.439Z,96141.75
2023-04-20T13:38:00.791Z,96132.72
2023-04-20T13:40:29.243Z,96167.16
2023-04-20T13:42:58.165Z,96152.72
2023-04-20T13:45:27.977Z,96136.16
2023-04-20T13:47:56.405Z,96130.75
2023-04-20T13:50:24.779Z,96186.19
2023-04-20T13:52:54.364Z,96149.31
2023-04-20T13:55:23.831Z,96136.00
2023-04-20T13:57:53.539Z,96127.13
2023-04-20T14:00:23.647Z,96109.84
2023-04-20T14:02:52.045Z,96076.84
2023-04-20T14:05:22.371Z,96111.50
2023-04-20T14:07:50.613Z,96096.41
2023-04-20T14:10:27.023Z,96130.41
2023-04-20T14:12:55.453Z,96111.31
2023-04-20T14:15:23.685Z,96105.59
2023-04-20T14:17:52.791Z,96126.75
2023-04-20T14:20:21.416Z,96107.75
2023-04-20T14:22:49.651Z,96090.72
2023-04-20T14:25:18.090Z,96074.88
2023-04-20T14:27:47.664Z,96091.50
2023-04-20T14:30:16.371Z,95976.97
2023-04-20T14:32:56.043Z,96096.28
2023-04-20T14:35:26.073Z,96109.56
2023-04-20T14:37:54.467Z,96123.34
2023-04-20T14:40:23.077Z,96116.25
2023-04-20T14:42:52.648Z,96098.91
2023-04-20T14:45:21.369Z,96114.97
2023-04-20T14:47:54.755Z,96096.94
2023-04-20T14:50:23.580Z,96086.75
2023-04-20T14:52:52.877Z,96086.59
2023-04-20T14:55:23.467Z,96093.00
2023-04-20T14:57:56.791Z,96119.75
2023-04-20T15:00:25.652Z,96117.94
2023-04-20T15:02:56.319Z,96115.31
2023-04-20T15:05:26.089Z,96099.56
2023-04-20T15:07:54.407Z,96072.34
2023-04-20T15:10:22.839Z,96083.59
2023-04-20T15:12:51.091Z,96104.97
2023-04-20T15:15:20.986Z,96106.41
2023-04-20T15:17:49.513Z,96081.81
2023-04-20T15:20:17.799Z,96082.16
2023-04-20T15:22:46.070Z,96106.94
2023-04-20T15:25:14.371Z,96132.34
2023-04-20T15:27:42.580Z,96107.75
2023-04-20T15:30:12.112Z,96114.44
2023-04-20T15:32:41.789Z,96127.59
2023-04-20T15:35:10.321Z,96122.69
2023-04-20T15:37:38.520Z,96134.34
2023-04-20T15:40:08.756Z,96091.19
2023-04-20T15:42:36.997Z,96127.78
2023-04-20T15:45:06.102Z,96120.38
2023-04-20T15:47:34.357Z,96133.69
2023-04-20T15:50:04.022Z,96127.13
2023-04-20T15:52:32.862Z,96140.09
2023-04-20T15:55:01.104Z,96128.09
2023-04-20T15:57:30.829Z,96165.53
2023-04-20T15:59:59.375Z,96124.13
2023-04-20T16:02:28.399Z,96149.78
2023-04-20T16:04:57.238Z,96119.91
2023-04-20T16:07:27.390Z,96123.88
2023-04-20T16:09:59.788Z,96131.56
2023-04-20T16:12:27.991Z,96133.56
2023-04-20T16:14:57.261Z,96133.38
2023-04-20T16:17:25.786Z,96137.66
2023-04-20T16:19:54.101Z,96155.50
2023-04-20T16:22:22.661Z,96108.59
2023-04-20T16:24:52.232Z,96122.53
2023-04-20T16:27:20.467Z,96143.03
2023-04-20T16:29:48.713Z,96121.56
2023-04-20T16:32:17.013Z,96098.25
2023-04-20T16:34:45.440Z,96127.31
2023-04-20T16:37:13.720Z,96105.00
2023-04-20T16:39:42.216Z,96084.66
2023-04-20T16:42:11.794Z,96129.75
2023-04-20T16:44:41.821Z,96128.94
2023-04-20T16:47:10.412Z,96131.38
2023-04-20T16:49:38.702Z,96113.03
2023-04-20T16:52:06.971Z,96053.03
2023-04-20T16:54:35.310Z,96087.09
2023-04-20T16:57:03.633Z,96141.22
2023-04-20T16:59:33.242Z,96167.16
2023-04-20T17:02:01.684Z,96116.47
2023-04-20T17:04:30.097Z,96136.00
2023-04-20T17:06:58.459Z,96149.44
2023-04-20T17:09:26.847Z,96109.75
2023-04-20T17:11:56.238Z,96154.34
2023-04-20T17:14:24.543Z,96100.88
2023-04-20T17:16:56.522Z,96059.84
2023-04-20T17:19:25.328Z,96167.28
2023-04-20T17:21:53.904Z,96149.09
2023-04-20T17:24:22.218Z,96121.53
2023-04-20T17:26:50.622Z,96106.13
2023-04-20T17:29:18.873Z,96106.25
2023-04-20T17:31:47.755Z,95922.75
2023-04-20T17:34:18.994Z,96125.44
2023-04-20T17:36:47.758Z,96125.28
2023-04-20T17:39:16.245Z,96078.41
2023-04-20T17:41:45.102Z,96117.56
2023-04-20T17:44:13.422Z,96073.66
2023-04-20T17:46:41.945Z,96008.72
2023-04-20T17:49:10.187Z,96136.09
2023-04-20T17:51:39.863Z,96173.66
2023-04-20T17:54:08.196Z,96162.81
2023-04-20T17:56:36.557Z,96146.44
2023-04-20T17:59:05.472Z,96170.00
2023-04-20T18:01:57.700Z,96151.81
2023-04-20T18:04:26.547Z,96183.94
2023-04-20T18:06:56.427Z,96046.13
2023-04-20T18:09:24.822Z,96124.81
2023-04-20T18:11:53.788Z,96223.75
2023-04-20T18:14:22.116Z,96134.28
2023-04-20T18:16:52.084Z,96197.84
2023-04-20T18:19:20.429Z,96148.34
2023-04-20T18:21:49.498Z,96191.75
2023-04-20T18:24:19.381Z,96215.25
2023-04-20T18:26:47.769Z,96144.94
2023-04-20T18:29:16.190Z,96204.09
2023-04-20T18:31:46.495Z,96188.13
2023-04-20T18:34:16.624Z,96230.84
2023-04-20T18:36:45.022Z,96066.31
2023-04-20T18:39:13.303Z,96197.56
2023-04-20T18:41:42.966Z,96235.94
2023-04-20T18:44:11.742Z,96274.31
2023-04-20T18:46:42.124Z,96182.56
2023-04-20T18:49:11.596Z,96218.09
2023-04-20T18:51:39.947Z,96207.94
2023-04-20T18:54:08.204Z,96221.78
2023-04-20T18:56:38.585Z,96254.63
2023-04-20T18:59:09.468Z,96175.41
2023-04-20T19:01:40.705Z,96294.97
2023-04-20T19:04:09.816Z,96243.03
2023-04-20T19:06:38.220Z,96191.44
2023-04-20T19:09:08.262Z,96258.44
2023-04-20T19:11:36.950Z,96150.19
2023-04-20T19:14:05.383Z,96239.66
2023-04-20T19:16:35.681Z,96206.91
2023-04-20T19:19:04.195Z,96258.81
2023-04-20T19:21:33.184Z,96263.13
2023-04-20T19:24:01.474Z,96238.69
2023-04-20T19:26:29.877Z,96152.13
2023-04-20T19:28:59.918Z,96244.91
2023-04-20T19:31:33.986Z,96256.50
2023-04-20T19:34:04.220Z,96248.69
2023-04-20T19:36:32.787Z,96252.59
2023-04-20T19:39:01.261Z,96356.50
2023-04-20T19:41:29.581Z,96256.91
2023-04-20T19:43:59.201Z,96246.19
2023-04-20T19:46:27.540Z,96296.34
2023-04-20T19:48:55.843Z,96280.31
2023-04-20T19:51:26.139Z,96186.97
2023-04-20T19:53:55.166Z,96239.03
2023-04-20T19:56:23.616Z,96289.75
2023-04-20T19:58:52.083Z,96233.34
2023-04-20T20:01:45.616Z,96209.84
2023-04-20T20:04:17.337Z,96223.97
2023-04-20T20:06:50.021Z,96244.00
2023-04-20T20:09:20.764Z,96265.41
2023-04-20T20:11:50.905Z,96272.47
2023-04-20T20:14:19.465Z,96077.72
2023-04-20T20:16:48.130Z,96232.34
2023-04-20T20:19:18.214Z,96097.81
2023-04-20T20:21:48.154Z,96219.34
2023-04-20T20:24:16.522Z,96217.75
2023-04-20T20:26:44.865Z,96249.53
2023-04-20T20:29:13.143Z,96200.63
2023-04-20T20:31:41.603Z,96225.31
2023-04-20T20:34:10.029Z,96246.19
2023-04-20T20:36:38.387Z,96199.34
2023-04-20T20:39:31.713Z,96177.97
2023-04-20T20:42:00.015Z,96217.91
2023-04-20T20:44:29.750Z,96194.94
2023-04-20T20:46:58.226Z,96175.28
2023-04-20T20:49:26.585Z,96210.06
2023-04-20T20:51:54.898Z,96164.31
2023-04-20T20:54:24.514Z,96169.25
2023-04-20T20:56:52.779Z,96217.41
2023-04-20T20:59:21.179Z,96219.34
2023-04-20T21:01:49.633Z,96184.00
2023-04-20T21:04:17.963Z,96163.41
2023-04-20T21:06:46.237Z,96174.56
2023-04-20T21:09:15.469Z,96154.03
2023-04-20T21:11:45.093Z,96195.03
2023-04-20T21:14:13.293Z,96167.19
2023-04-20T21:16:41.558Z,96171.31
2023-04-20T21:19:10.661Z,96183.72
2023-04-20T21:21:38.907Z,96168.31
2023-04-20T21:24:07.621Z,96208.41
2023-04-20T21:26:35.987Z,96191.88
2023-04-20T21:29:05.844Z,96149.38
2023-04-20T21:31:34.679Z,96188.25
2023-04-20T21:34:02.992Z,96156.84
2023-04-20T21:36:32.639Z,96171.94
2023-04-20T21:39:00.847Z,96164.69
2023-04-20T21:41:32.131Z,96321.38
2023-04-20T21:44:00.596Z,96144.09
2023-04-20T21:46:30.394Z,96127.25
2023-04-20T21:48:58.967Z,96160.78
2023-04-20T21:51:28.760Z,96131.50
2023-04-20T21:53:56.976Z,96148.44
2023-04-20T21:56:25.215Z,96154.25
2023-04-20T21:58:53.528Z,96191.81
2023-04-20T22:01:26.199Z,96171.09
2023-04-20T22:03:58.124Z,96215.63
2023-04-20T22:06:26.857Z,96127.38
2023-04-20T22:08:55.117Z,96123.72
2023-04-20T22:11:23.357Z,96122.63
2023-04-20T22:13:51.777Z,96163.75
2023-04-20T22:16:21.068Z,96148.94
2023-04-20T22:18:49.820Z,96238.97
2023-04-20T22:21:19.383Z,96210.53
2023-04-20T22:23:47.617Z,96192.22
2023-04-20T22:26:16.832Z,96179.06
2023-04-20T22:28:45.442Z,96128.78
2023-04-20T22:31:14.186Z,96191.31
2023-04-20T22:33:42.589Z,96131.81
2023-04-20T22:36:11.375Z,96200.72
2023-04-20T22:38:41.099Z,96193.25
2023-04-20T22:41:09.377Z,96163.88
2023-04-20T22:43:37.559Z,96188.31
2023-04-20T22:46:05.976Z,96175.22
2023-04-20T22:48:34.193Z,96202.84
2023-04-20T22:51:02.903Z,96180.69
2023-04-20T22:53:31.091Z,96186.47
2023-04-20T22:56:06.139Z,96161.09
2023-04-20T22:58:34.466Z,96198.69
2023-04-20T23:01:02.817Z,96187.66
2023-04-20T23:03:31.254Z,96206.75
2023-04-20T23:05:59.964Z,96210.56
2023-04-20T23:08:28.663Z,96215.78
2023-04-20T23:10:56.979Z,96190.34
2023-04-20T23:13:27.349Z,96202.88
2023-04-20T23:15:55.759Z,96195.19
2023-04-20T23:18:23.995Z,96206.41
2023-04-20T23:20:52.222Z,96212.22
2023-04-20T23:23:20.425Z,96213.56
2023-04-20T23:25:49.473Z,96198.25
2023-04-20T23:28:17.642Z,96184.41
2023-04-20T23:30:47.220Z,96196.28
2023-04-20T23:33:15.850Z,96245.19
2023-04-20T23:35:44.103Z,96253.84
2023-04-20T23:38:12.310Z,96221.94
2023-04-20T23:40:40.568Z,96187.56
2023-04-20T23:43:08.775Z,96176.72
2023-04-20T23:45:37.093Z,96142.66
2023-04-20T23:48:07.581Z,96188.59
2023-04-20T23:50:37.016Z,96222.59
2023-04-20T23:53:05.742Z,96121.34
2023-04-20T23:55:34.132Z,96174.53
2023-04-20T23:58:02.334Z,96197.44
